Terminal Aerodrome Forecast
Issued by NWS

Home | Current Version | Previous Version | Text Only | Print | Product List | Glossary On
Versions: 1 2 3 4 5 6 7 8 9 10 11 12 13 14 15 16 17 18 19 20 21
000
FTUS44 KLZK 210523
TAFLIT
TAF
KLIT 210523Z 2106/2206 17010KT P6SM SCT008 OVC025 WS020/19040KT
     FM210900 17009KT 6SM -DZ BR OVC015 WS020/19040KT
      TEMPO 2109/2113 4SM -DZ BR OVC008
     FM211500 17007G16KT P6SM SCT008 OVC020
     FM211800 18008G18KT P6SM VCSH BKN050 OVC080 PROB30 2120/2202
      6SM -TSRA OVC050CB=

USA.gov is the U.S. government's official web portal to all federal, state and local government web resources and services.